Time;durP1;ratioP1;P1;durP2;ratioP2;P2;SDS_P1;SDS_P2;PMS_P1;PMS_P2;Temp;Humidity;BMP_temperature;BMP_pressure;BME280_temperature;BME280_humidity;BME280_pressure;Samples;Min_cycle;Max_cycle;Signal;HPM_P1;HPM_P2
2021/11/27 00:01:35;;;;;;;24.70;13.30;;;;;;;1.98;76.77;97735.20;126175;1315;107408;-84
2021/11/27 00:04:40;;;;;;;20.90;11.80;;;;;;;1.91;76.71;97727.63;126353;1313;109024;-85
2021/11/27 00:07:46;;;;;;;24.20;12.80;;;;;;;1.93;76.71;97726.34;126295;1314;107892;-86
2021/11/27 00:10:55;;;;;;;22.20;12.30;;;;;;;1.96;76.83;97725.18;126325;1314;109043;-86
2021/11/27 00:14:00;;;;;;;20.70;12.70;;;;;;;1.94;77.12;97724.73;126555;1313;108840;-87
2021/11/27 00:17:06;;;;;;;22.80;13.80;;;;;;;1.89;77.04;97717.72;126364;1313;107886;-83
2021/11/27 00:20:17;;;;;;;22.80;12.90;;;;;;;1.81;77.35;97719.52;126088;1315;108847;-85
2021/11/27 00:23:23;;;;;;;23.80;13.20;;;;;;;1.70;77.39;97718.10;126468;1313;109224;-85
2021/11/27 00:26:29;;;;;;;21.50;12.90;;;;;;;1.70;77.81;97714.85;126548;1313;108732;-84
2021/11/27 00:29:34;;;;;;;21.40;12.70;;;;;;;1.67;77.91;97707.43;126120;1314;108648;-85
2021/11/27 00:32:40;;;;;;;22.70;12.90;;;;;;;1.67;77.91;97704.12;126372;1315;108702;-86
2021/11/27 00:35:46;;;;;;;20.30;11.90;;;;;;;1.62;78.38;97701.08;126420;1313;108975;-85
2021/11/27 00:38:52;;;;;;;20.20;12.00;;;;;;;1.55;78.26;97698.27;126449;1313;106672;-85
2021/11/27 00:41:58;;;;;;;23.40;13.60;;;;;;;1.50;78.41;97694.98;126226;1315;107882;-85
2021/11/27 00:45:07;;;;;;;23.40;13.80;;;;;;;1.45;78.61;97696.34;126356;1315;108663;-85
2021/11/27 00:48:14;;;;;;;23.50;12.60;;;;;;;1.43;78.74;97696.19;126318;1319;108594;-82
2021/11/27 00:51:26;;;;;;;20.00;11.90;;;;;;;1.45;78.79;97693.59;126561;1314;108871;-82
2021/11/27 00:54:31;;;;;;;22.90;12.30;;;;;;;1.50;78.32;97697.63;126397;1315;109026;-82
2021/11/27 00:57:38;;;;;;;21.90;13.00;;;;;;;1.55;78.44;97697.35;126376;1314;108712;-84
2021/11/27 01:00:47;;;;;;;24.20;13.70;;;;;;;1.55;78.76;97696.86;126334;1314;108879;-85
2021/11/27 01:03:53;;;;;;;21.50;12.60;;;;;;;1.53;78.23;97692.34;126076;1315;109011;-81
2021/11/27 01:06:59;;;;;;;22.90;13.00;;;;;;;1.50;78.70;97687.02;126117;1315;109037;-80
2021/11/27 01:10:08;;;;;;;21.30;12.60;;;;;;;1.47;78.43;97690.18;126203;1315;109045;-86
2021/11/27 01:13:14;;;;;;;17.90;11.10;;;;;;;1.48;78.97;97685.53;126213;1316;107916;-80
2021/11/27 01:16:23;;;;;;;21.70;12.60;;;;;;;1.49;78.78;97681.59;126447;1314;109005;-80
2021/11/27 01:19:29;;;;;;;20.10;12.30;;;;;;;1.53;78.82;97678.70;126614;1315;108835;-79
2021/11/27 01:22:35;;;;;;;19.20;11.90;;;;;;;1.56;78.56;97681.02;126410;1318;108758;-82
2021/11/27 01:25:41;;;;;;;18.20;11.80;;;;;;;1.54;78.59;97682.03;126190;1315;108964;-79
2021/11/27 01:28:46;;;;;;;20.10;12.40;;;;;;;1.48;78.61;97676.46;126053;1319;108820;-82
2021/11/27 01:31:52;;;;;;;19.80;12.20;;;;;;;1.43;79.03;97679.37;125898;1315;108738;-84
2021/11/27 01:34:57;;;;;;;20.70;12.40;;;;;;;1.42;79.26;97678.47;125961;1315;108966;-81
2021/11/27 01:38:03;;;;;;;21.70;11.60;;;;;;;1.43;79.48;97680.48;126266;1315;108782;-83
2021/11/27 01:41:09;;;;;;;20.10;11.60;;;;;;;1.44;79.17;97679.52;126464;1315;108983;-81
2021/11/27 01:44:18;;;;;;;19.70;11.60;;;;;;;1.48;79.20;97679.81;126184;1315;108686;-82
2021/11/27 01:47:24;;;;;;;17.00;10.90;;;;;;;1.49;79.28;97677.35;126211;1317;108903;-83
2021/11/27 01:50:34;;;;;;;19.20;12.20;;;;;;;1.46;79.22;97677.52;126406;1314;108903;-81
2021/11/27 01:53:43;;;;;;;20.90;11.80;;;;;;;1.43;79.39;97677.60;126306;1315;108851;-81
2021/11/27 01:56:52;;;;;;;19.50;11.80;;;;;;;1.40;79.28;97675.32;126310;1317;109456;-82
2021/11/27 02:00:03;;;;;;;16.80;10.10;;;;;;;1.36;79.68;97671.55;126444;1315;108811;-81
2021/11/27 02:03:09;;;;;;;18.70;11.10;;;;;;;1.36;79.39;97670.29;126501;1319;108912;-80
2021/11/27 02:06:32;;;;;;;17.90;10.90;;;;;;;1.37;79.48;97665.85;126355;1315;108930;-82
2021/11/27 02:09:40;;;;;;;18.10;11.30;;;;;;;1.35;80.01;97664.43;126015;1316;108973;-81
2021/11/27 02:12:46;;;;;;;18.30;11.50;;;;;;;1.32;79.87;97664.97;126183;1315;108938;-80
2021/11/27 02:15:52;;;;;;;19.60;11.30;;;;;;;1.30;79.78;97664.59;125899;1318;108964;-82
2021/11/27 02:18:59;;;;;;;17.50;11.20;;;;;;;1.30;80.03;97659.16;126066;1315;109140;-84
2021/11/27 02:22:05;;;;;;;18.90;11.50;;;;;;;1.32;80.31;97660.73;126200;1318;108803;-80
2021/11/27 02:25:23;;;;;;;17.60;11.10;;;;;;;1.32;80.16;97656.20;126425;1313;108741;-81
2021/11/27 02:28:30;;;;;;;16.00;10.30;;;;;;;1.37;79.73;97655.11;126400;1315;108861;-83
2021/11/27 02:31:36;;;;;;;15.90;10.30;;;;;;;1.41;79.81;97648.74;126100;1319;108866;-85
2021/11/27 02:34:42;;;;;;;18.60;10.70;;;;;;;1.38;79.94;97647.48;126287;1316;108780;-79
2021/11/27 02:37:49;;;;;;;18.40;11.60;;;;;;;1.39;79.76;97649.30;126104;1315;108914;-79
2021/11/27 02:40:55;;;;;;;15.20;9.60;;;;;;;1.37;80.41;97648.61;126335;1313;108770;-81
2021/11/27 02:44:01;;;;;;;17.60;11.30;;;;;;;1.37;80.60;97650.58;126317;1315;108710;-77
2021/11/27 02:47:09;;;;;;;16.80;11.30;;;;;;;1.35;80.45;97648.98;126164;1315;108796;-81
2021/11/27 02:50:14;;;;;;;17.10;10.80;;;;;;;1.36;80.30;97645.64;126168;1317;108755;-77
2021/11/27 02:53:21;;;;;;;17.80;10.90;;;;;;;1.33;80.33;97650.85;126338;1318;109047;-78
2021/11/27 02:56:27;;;;;;;23.20;13.70;;;;;;;1.31;80.07;97653.67;126462;1313;108970;-86
2021/11/27 02:59:33;;;;;;;21.30;12.10;;;;;;;1.32;80.41;97650.42;126376;1315;107993;-87
2021/11/27 03:02:39;;;;;;;18.00;10.80;;;;;;;1.36;80.41;97658.16;126334;1316;105642;-86
2021/11/27 03:05:45;;;;;;;18.20;11.60;;;;;;;1.42;80.04;97658.51;126026;1316;109100;-85
2021/11/27 03:08:50;;;;;;;20.60;12.50;;;;;;;1.47;80.27;97660.23;126358;1314;106794;-83
2021/11/27 03:11:57;;;;;;;19.20;11.90;;;;;;;1.47;79.95;97659.51;126210;1316;107722;-86
2021/11/27 03:15:03;;;;;;;20.20;12.40;;;;;;;1.44;80.32;97661.04;126126;1315;108757;-85
2021/11/27 03:18:10;;;;;;;18.20;11.70;;;;;;;1.41;79.93;97658.25;126173;1315;107727;-85
2021/11/27 03:21:16;;;;;;;18.00;11.50;;;;;;;1.44;79.78;97658.09;126424;1316;107838;-87
2021/11/27 03:24:21;;;;;;;16.80;10.30;;;;;;;1.48;80.18;97657.90;126494;1313;108522;-86
2021/11/27 03:27:27;;;;;;;18.40;11.30;;;;;;;1.47;80.06;97659.83;126252;1315;108500;-86
2021/11/27 03:30:32;;;;;;;18.20;11.70;;;;;;;1.56;80.04;97659.48;126276;1316;106823;-82
2021/11/27 03:33:39;;;;;;;17.90;10.90;;;;;;;1.57;79.98;97657.08;126376;1315;107756;-85
2021/11/27 03:36:46;;;;;;;18.20;11.50;;;;;;;1.59;79.84;97663.52;126085;1319;109022;-84
2021/11/27 03:39:52;;;;;;;16.90;11.00;;;;;;;1.60;79.80;97669.80;126161;1315;108783;-85
2021/11/27 03:42:57;;;;;;;20.50;11.80;;;;;;;1.55;80.02;97670.02;126348;1315;108740;-84
2021/11/27 03:46:03;;;;;;;19.00;11.90;;;;;;;1.52;79.97;97672.27;126179;1313;109055;-80
2021/11/27 03:49:09;;;;;;;16.90;9.80;;;;;;;1.53;80.01;97668.91;126148;1317;108915;-81
2021/11/27 03:52:17;;;;;;;18.90;11.40;;;;;;;1.58;80.07;97666.77;126277;1313;108926;-84
2021/11/27 03:55:23;;;;;;;18.40;10.70;;;;;;;1.63;79.85;97673.65;126160;1316;109037;-79
2021/11/27 03:58:29;;;;;;;19.60;12.20;;;;;;;1.64;79.91;97674.41;126332;1315;108851;-80
2021/11/27 04:01:35;;;;;;;20.00;12.60;;;;;;;1.60;79.79;97672.73;126379;1317;108970;-79
2021/11/27 04:04:42;;;;;;;21.90;12.70;;;;;;;1.63;79.70;97679.11;126350;1317;108887;-79
2021/11/27 04:07:49;;;;;;;25.40;13.90;;;;;;;1.64;79.74;97680.20;126145;1315;108706;-79
2021/11/27 04:10:54;;;;;;;20.80;12.20;;;;;;;1.67;79.86;97685.83;126183;1315;108752;-79
2021/11/27 04:14:02;;;;;;;19.70;11.60;;;;;;;1.68;80.00;97685.36;126065;1315;108833;-82
2021/11/27 04:17:08;;;;;;;20.60;12.60;;;;;;;1.65;79.79;97684.44;126075;1320;109228;-82
2021/11/27 04:20:14;;;;;;;19.80;12.70;;;;;;;1.68;79.89;97683.30;125874;1315;109011;-78
2021/11/27 04:23:20;;;;;;;18.40;11.50;;;;;;;1.66;79.70;97686.34;125917;1317;108896;-77
2021/11/27 04:26:28;;;;;;;22.40;13.40;;;;;;;1.66;79.74;97691.51;125765;1316;108850;-75
2021/11/27 04:29:34;;;;;;;23.90;13.90;;;;;;;1.64;80.16;97696.38;125989;1315;108938;-76
2021/11/27 04:32:41;;;;;;;19.40;11.60;;;;;;;1.57;79.97;97699.16;125851;1316;109040;-77
2021/11/27 04:35:52;;;;;;;19.80;12.40;;;;;;;1.61;79.97;97703.98;126142;1313;108864;-76
2021/11/27 04:39:01;;;;;;;21.30;13.00;;;;;;;1.66;80.16;97696.99;126028;1316;108932;-83
2021/11/27 04:42:08;;;;;;;33.40;18.80;;;;;;;1.68;79.94;97698.54;125917;1315;109001;-81
2021/11/27 04:45:15;;;;;;;95.70;33.50;;;;;;;1.69;79.91;97701.36;125819;1317;108928;-83
2021/11/27 04:48:24;;;;;;;113.50;43.80;;;;;;;1.74;79.77;97707.23;126117;1315;108781;-83
2021/11/27 04:51:29;;;;;;;776.00;309.70;;;;;;;1.76;79.73;97708.51;126107;1314;108969;-82
2021/11/27 04:54:35;;;;;;;62.60;28.30;;;;;;;1.82;79.76;97709.75;126234;1315;106308;-82
2021/11/27 04:57:41;;;;;;;83.50;35.60;;;;;;;1.82;79.81;97712.52;126375;1318;108914;-81
2021/11/27 05:00:49;;;;;;;117.70;52.40;;;;;;;1.81;79.77;97721.08;126299;1320;108952;-82
2021/11/27 05:04:01;;;;;;;187.40;90.40;;;;;;;1.85;79.79;97724.45;126393;1317;109003;-84
2021/11/27 05:07:07;;;;;;;71.80;35.10;;;;;;;1.84;79.83;97729.34;126234;1315;108952;-82
2021/11/27 05:10:14;;;;;;;83.40;44.10;;;;;;;1.85;79.78;97742.57;125886;1315;108963;-81
2021/11/27 05:13:20;;;;;;;65.60;36.40;;;;;;;1.89;79.67;97750.14;126154;1316;107315;-84
2021/11/27 05:16:28;;;;;;;45.80;20.80;;;;;;;1.99;79.73;97756.83;126271;1318;107412;-83
2021/11/27 05:19:34;;;;;;;33.30;17.70;;;;;;;2.06;79.65;97763.63;126141;1314;108928;-86
2021/11/27 05:22:49;;;;;;;43.60;19.00;;;;;;;2.13;79.52;97765.85;126129;1315;109112;-86
2021/11/27 05:25:55;;;;;;;39.90;21.40;;;;;;;2.19;79.31;97773.20;126273;1314;108985;-85
2021/11/27 05:29:35;;;;;;;28.60;17.30;;;;;;;2.24;79.39;97777.08;125877;1318;106667;-88
2021/11/27 05:33:05;;;;;;;38.90;19.20;;;;;;;2.30;79.23;97783.41;126671;1316;108827;-89
2021/11/27 05:36:17;;;;;;;32.30;16.90;;;;;;;2.26;79.13;97792.23;126276;1315;108815;-85
2021/11/27 05:39:22;;;;;;;33.80;17.70;;;;;;;2.27;79.26;97791.27;126223;1316;108945;-84
2021/11/27 05:42:32;;;;;;;204.60;90.60;;;;;;;2.25;79.10;97793.21;126118;1314;108734;-84
2021/11/27 05:45:38;;;;;;;123.70;51.60;;;;;;;2.20;79.09;97791.45;126201;1315;109764;-81
2021/11/27 05:48:44;;;;;;;373.80;155.80;;;;;;;2.16;79.19;97801.37;126149;1315;108829;-85
2021/11/27 05:51:52;;;;;;;257.90;104.50;;;;;;;2.22;79.41;97805.36;126301;1315;108741;-82
2021/11/27 05:54:58;;;;;;;631.50;283.50;;;;;;;2.31;79.36;97810.66;126455;1314;109211;-81
2021/11/27 05:58:03;;;;;;;569.50;264.20;;;;;;;2.34;79.17;97818.42;126310;1313;108813;-83
2021/11/27 06:01:10;;;;;;;384.90;150.80;;;;;;;2.34;78.99;97825.91;126448;1315;108769;-81
2021/11/27 06:04:15;;;;;;;971.60;495.30;;;;;;;2.33;79.03;97825.20;126370;1319;108861;-78
2021/11/27 06:07:21;;;;;;;322.80;129.90;;;;;;;2.29;79.03;97825.91;126317;1320;108928;-82
2021/11/27 06:10:27;;;;;;;40.90;24.90;;;;;;;2.30;79.18;97831.24;126199;1320;108775;-83
2021/11/27 06:13:32;;;;;;;73.20;26.70;;;;;;;2.33;79.08;97833.06;126231;1316;109112;-84
2021/11/27 06:16:38;;;;;;;40.00;19.60;;;;;;;2.38;79.16;97845.05;126259;1317;106581;-87
2021/11/27 06:19:44;;;;;;;34.80;18.50;;;;;;;2.31;78.95;97842.11;126731;1314;108719;-92
2021/11/27 06:22:50;;;;;;;37.20;20.80;;;;;;;2.39;79.02;97862.02;126201;1315;107896;-84
2021/11/27 06:25:55;;;;;;;32.60;20.30;;;;;;;2.35;78.92;97866.58;126175;1317;108818;-83
2021/11/27 06:29:01;;;;;;;34.00;19.90;;;;;;;2.33;79.01;97867.11;126189;1320;108940;-87
2021/11/27 06:32:09;;;;;;;32.50;17.60;;;;;;;2.34;78.99;97871.88;126451;1314;108908;-87
2021/11/27 06:35:15;;;;;;;30.20;16.80;;;;;;;2.35;79.06;97876.89;126660;1314;108990;-86
2021/11/27 06:38:21;;;;;;;31.40;17.70;;;;;;;2.32;78.88;97877.27;126341;1315;108945;-83
2021/11/27 06:41:26;;;;;;;48.20;23.70;;;;;;;2.29;79.20;97887.41;126055;1315;108699;-83
2021/11/27 06:44:55;;;;;;;36.70;18.20;;;;;;;2.38;79.06;97884.55;126329;1315;109069;-85
2021/11/27 06:48:02;;;;;;;32.90;17.20;;;;;;;2.42;78.97;97883.55;126205;1314;108919;-85
2021/11/27 06:51:07;;;;;;;27.90;15.70;;;;;;;2.43;78.89;97876.52;126222;1320;109214;-85
2021/11/27 06:54:13;;;;;;;35.70;19.50;;;;;;;2.30;78.89;97882.66;126293;1316;108935;-82
2021/11/27 06:57:18;;;;;;;31.60;16.20;;;;;;;2.31;78.99;97889.77;126413;1315;109367;-82
2021/11/27 07:00:24;;;;;;;34.20;16.10;;;;;;;2.29;78.99;97892.45;126490;1315;108560;-84
2021/11/27 07:03:59;;;;;;;97.40;40.00;;;;;;;2.34;78.98;97892.11;126430;1316;108980;-81
2021/11/27 07:07:23;;;;;;;48.80;22.90;;;;;;;2.42;79.16;97891.27;126256;1314;108728;-84
2021/11/27 07:10:44;;;;;;;;;;;;;;;2.53;78.96;97901.25;126221;1320;108924;-81
2021/11/27 07:14:00;;;;;;;322.60;148.40;;;;;;;2.54;78.80;97903.88;126420;1318;109060;-79
2021/11/27 07:17:06;;;;;;;304.80;130.80;;;;;;;2.55;78.85;97913.27;126369;1315;109020;-81
2021/11/27 07:20:12;;;;;;;138.80;60.70;;;;;;;2.54;78.88;97922.02;126389;1318;109043;-80
2021/11/27 07:23:18;;;;;;;309.90;139.20;;;;;;;2.56;78.78;97931.08;126380;1314;108813;-78
2021/11/27 07:26:24;;;;;;;182.00;89.50;;;;;;;2.57;78.80;97936.08;126287;1315;107993;-84
2021/11/27 07:29:33;;;;;;;176.80;81.60;;;;;;;2.59;78.72;97933.73;126398;1319;108898;-84
2021/11/27 07:32:38;;;;;;;51.20;26.70;;;;;;;2.61;78.90;97935.30;126348;1316;108963;-83
2021/11/27 07:35:44;;;;;;;51.30;29.50;;;;;;;2.71;78.69;97940.21;126347;1315;107353;-84
2021/11/27 07:38:49;;;;;;;41.20;23.80;;;;;;;2.77;78.62;97943.83;126142;1317;108888;-84
2021/11/27 07:41:55;;;;;;;35.80;21.10;;;;;;;2.78;78.70;97955.70;125944;1317;108804;-84
2021/11/27 07:45:13;;;;;;;31.70;18.40;;;;;;;2.82;78.57;97961.79;126188;1313;108682;-84
2021/11/27 07:48:47;;;;;;;32.90;18.60;;;;;;;2.83;78.43;97977.48;126017;1314;109108;-87
2021/11/27 07:52:22;;;;;;;35.50;18.40;;;;;;;2.80;78.49;97975.68;126279;1313;108855;-83
2021/11/27 07:55:30;;;;;;;30.30;16.50;;;;;;;2.74;78.45;97978.91;126292;1314;108990;-83
2021/11/27 07:58:36;;;;;;;26.20;14.70;;;;;;;2.76;78.59;97976.80;126191;1317;108855;-82
2021/11/27 08:01:41;;;;;;;31.20;16.90;;;;;;;2.83;78.40;97978.00;126286;1317;108705;-81
2021/11/27 08:04:47;;;;;;;29.10;16.50;;;;;;;2.88;78.55;97978.80;125928;1317;108869;-82
2021/11/27 08:07:52;;;;;;;34.50;18.90;;;;;;;2.97;78.35;97979.84;126567;1313;108841;-82
2021/11/27 08:10:58;;;;;;;38.40;21.60;;;;;;;3.02;78.23;97984.05;126904;1314;109005;-82
2021/11/27 08:14:04;;;;;;;34.30;20.20;;;;;;;3.00;78.37;97992.56;126538;1313;108973;-78
2021/11/27 08:17:10;;;;;;;34.80;21.10;;;;;;;2.98;78.12;97988.84;126167;1313;108634;-80
2021/11/27 08:20:15;;;;;;;36.30;20.20;;;;;;;2.93;78.33;97994.42;126435;1314;108871;-82
2021/11/27 08:23:21;;;;;;;65.50;32.80;;;;;;;2.95;78.27;97998.71;126190;1317;109247;-82
2021/11/27 08:26:26;;;;;;;33.40;17.90;;;;;;;3.00;78.39;98005.52;126490;1314;105513;-83
2021/11/27 08:29:32;;;;;;;35.80;18.20;;;;;;;3.10;78.30;98009.89;126235;1314;109000;-82
2021/11/27 08:32:39;;;;;;;37.10;19.50;;;;;;;3.21;78.17;98015.09;126189;1314;109037;-81
2021/11/27 08:35:45;;;;;;;34.50;19.90;;;;;;;3.27;78.03;98011.86;126104;1314;108778;-81
2021/11/27 08:38:50;;;;;;;33.50;19.80;;;;;;;3.27;77.97;98010.39;126357;1313;107105;-83
2021/11/27 08:41:55;;;;;;;33.90;18.80;;;;;;;3.29;78.05;98012.17;126418;1313;108788;-80
2021/11/27 08:45:05;;;;;;;33.50;18.40;;;;;;;3.27;77.95;98008.61;126580;1317;109090;-81
2021/11/27 08:48:10;;;;;;;34.60;18.60;;;;;;;3.28;77.96;98009.39;126465;1313;107156;-78
2021/11/27 08:51:16;;;;;;;33.80;16.80;;;;;;;3.30;77.87;98012.34;126142;1313;109153;-78
2021/11/27 08:54:21;;;;;;;28.50;14.90;;;;;;;3.25;77.86;98014.70;126380;1314;107418;-80
2021/11/27 08:57:27;;;;;;;29.60;15.20;;;;;;;3.31;77.99;98021.07;126137;1313;108790;-84
2021/11/27 09:00:33;;;;;;;29.00;15.90;;;;;;;3.42;77.92;98023.77;126561;1315;108908;-86
2021/11/27 09:03:38;;;;;;;29.10;16.20;;;;;;;3.46;77.64;98019.61;126280;1316;109223;-86
2021/11/27 09:06:45;;;;;;;29.10;15.30;;;;;;;3.51;77.72;98020.56;126163;1314;108907;-80
2021/11/27 09:09:53;;;;;;;31.70;16.40;;;;;;;3.51;77.64;98031.48;126592;1317;108724;-79
2021/11/27 09:13:00;;;;;;;26.30;15.00;;;;;;;3.53;77.71;98036.48;126094;1315;108975;-83
2021/11/27 09:16:06;;;;;;;83.70;34.70;;;;;;;3.57;77.74;98042.83;126126;1313;107576;-85
2021/11/27 09:19:12;;;;;;;31.30;15.70;;;;;;;3.59;77.64;98044.31;126073;1314;109070;-81
2021/11/27 09:22:18;;;;;;;28.20;13.50;;;;;;;3.64;77.57;98048.17;126073;1315;108790;-83
2021/11/27 09:25:25;;;;;;;67.30;31.50;;;;;;;3.70;77.34;98044.02;126102;1317;108749;-84
2021/11/27 09:28:30;;;;;;;42.20;22.60;;;;;;;3.76;77.34;98048.31;125928;1317;108605;-82
2021/11/27 09:31:39;;;;;;;247.20;127.50;;;;;;;3.76;77.34;98053.55;126208;1317;108792;-84
2021/11/27 09:34:44;;;;;;;92.70;45.00;;;;;;;3.72;77.12;98052.20;126406;1316;108868;-87
2021/11/27 09:37:50;;;;;;;146.80;77.50;;;;;;;3.66;77.26;98060.98;126330;1315;106697;-83
2021/11/27 09:41:10;;;;;;;71.70;36.00;;;;;;;3.64;77.45;98062.62;126067;1317;108958;-83
2021/11/27 09:44:18;;;;;;;67.50;36.30;;;;;;;3.63;77.35;98066.60;126354;1314;108953;-80
2021/11/27 09:47:25;;;;;;;39.80;21.70;;;;;;;3.62;77.33;98063.20;126170;1316;108666;-83
2021/11/27 09:50:32;;;;;;;32.20;17.50;;;;;;;3.65;77.53;98068.33;126209;1317;108868;-77
2021/11/27 09:53:41;;;;;;;27.60;14.40;;;;;;;3.68;77.13;98069.77;126357;1313;109043;-76
2021/11/27 09:56:48;;;;;;;27.70;15.30;;;;;;;3.71;77.18;98068.35;126201;1313;106781;-80
2021/11/27 09:59:53;;;;;;;32.10;17.40;;;;;;;3.78;77.24;98069.95;126033;1314;108899;-78
2021/11/27 10:03:00;;;;;;;29.10;15.80;;;;;;;3.81;76.96;98071.14;126320;1317;109012;-81
2021/11/27 10:06:05;;;;;;;27.60;16.20;;;;;;;3.83;76.99;98081.20;126391;1313;108977;-78
2021/11/27 10:09:14;;;;;;;28.90;15.80;;;;;;;3.83;76.85;98085.85;126156;1314;108924;-82
2021/11/27 10:12:21;;;;;;;28.20;14.50;;;;;;;3.79;76.84;98089.11;125983;1317;108829;-79
2021/11/27 10:15:29;;;;;;;26.60;15.40;;;;;;;3.74;76.78;98094.08;126009;1315;108848;-76
2021/11/27 10:18:35;;;;;;;40.30;21.70;;;;;;;3.71;77.03;98102.42;125820;1317;107772;-77
2021/11/27 10:21:41;;;;;;;148.80;62.00;;;;;;;3.67;76.84;98104.77;125845;1317;108918;-75
2021/11/27 10:24:48;;;;;;;137.20;63.80;;;;;;;3.60;76.85;98094.32;126074;1316;107901;-77
2021/11/27 10:28:00;;;;;;;128.30;60.80;;;;;;;3.62;77.08;98092.94;126086;1317;108800;-74
2021/11/27 10:31:05;;;;;;;;;;;;;;;3.68;77.04;98092.55;125873;1317;108838;-75
2021/11/27 10:34:17;;;;;;;291.50;114.90;;;;;;;3.73;76.79;98099.96;125990;1317;108785;-77
2021/11/27 10:37:26;;;;;;;51.00;25.00;;;;;;;3.76;76.99;98101.96;126091;1315;109042;-75
2021/11/27 10:40:32;;;;;;;34.70;19.20;;;;;;;3.84;76.84;98106.86;126125;1315;108926;-74
2021/11/27 10:43:38;;;;;;;33.70;18.90;;;;;;;3.89;76.66;98102.50;126082;1313;108933;-76
2021/11/27 10:46:43;;;;;;;32.60;18.30;;;;;;;3.89;76.63;98104.98;126034;1315;108961;-74
2021/11/27 10:49:50;;;;;;;30.20;17.80;;;;;;;3.91;76.79;98106.79;126079;1313;108882;-74
2021/11/27 10:52:56;;;;;;;31.80;18.20;;;;;;;3.92;76.91;98109.85;125976;1317;108900;-76
2021/11/27 10:56:08;;;;;;;34.60;18.30;;;;;;;3.96;76.68;98111.10;125909;1315;108939;-78
2021/11/27 10:59:15;;;;;;;34.30;21.00;;;;;;;4.04;76.77;98114.78;126013;1317;108965;-77
2021/11/27 11:02:22;;;;;;;38.40;22.10;;;;;;;4.13;76.69;98121.20;126107;1317;108821;-78
2021/11/27 11:05:38;;;;;;;32.20;18.80;;;;;;;4.17;76.68;98121.19;126095;1317;108899;-79
2021/11/27 11:08:43;;;;;;;43.70;28.80;;;;;;;4.22;76.55;98128.58;126154;1313;108936;-77
2021/11/27 11:11:58;;;;;;;34.50;21.90;;;;;;;4.26;76.60;98130.80;126393;1316;108734;-76
2021/11/27 11:15:16;;;;;;;32.80;18.80;;;;;;;4.26;76.47;98128.95;126411;1313;108975;-78
2021/11/27 11:18:25;;;;;;;30.30;18.20;;;;;;;4.29;76.54;98123.77;126360;1313;108785;-78
2021/11/27 11:21:30;;;;;;;30.80;17.30;;;;;;;4.31;76.52;98130.69;126384;1313;108761;-77
2021/11/27 11:24:36;;;;;;;27.40;16.10;;;;;;;4.37;76.60;98137.13;126055;1316;108656;-75
2021/11/27 11:27:43;;;;;;;58.50;33.40;;;;;;;4.41;76.50;98145.18;126154;1316;108893;-77
2021/11/27 11:30:52;;;;;;;80.40;29.30;;;;;;;4.44;76.51;98150.76;126014;1314;108849;-79
2021/11/27 11:34:00;;;;;;;539.70;264.50;;;;;;;4.50;76.35;98154.91;126354;1314;108946;-79
2021/11/27 11:37:08;;;;;;;367.80;139.00;;;;;;;4.57;76.33;98149.39;126237;1314;108644;-79
2021/11/27 11:40:15;;;;;;;74.30;32.90;;;;;;;4.64;76.22;98144.01;126038;1313;109047;-79
2021/11/27 11:43:20;;;;;;;44.40;22.80;;;;;;;4.65;75.83;98147.30;126126;1313;108890;-78
2021/11/27 11:46:26;;;;;;;38.80;20.80;;;;;;;4.65;76.14;98152.95;125935;1314;106790;-79
2021/11/27 11:49:33;;;;;;;75.30;40.00;;;;;;;4.73;76.12;98156.65;125978;1314;108914;-77
2021/11/27 11:52:54;;;;;;;38.20;21.80;;;;;;;4.77;75.87;98159.94;126156;1313;109055;-76
2021/11/27 11:56:04;;;;;;;32.80;20.30;;;;;;;4.83;75.93;98163.79;125995;1313;108624;-75
2021/11/27 11:59:25;;;;;;;106.10;36.20;;;;;;;4.93;75.91;98159.70;125952;1317;108954;-75
2021/11/27 12:02:32;;;;;;;46.60;22.80;;;;;;;5.03;75.75;98156.02;126004;1313;108918;-77
2021/11/27 12:06:02;;;;;;;35.80;18.10;;;;;;;5.04;75.70;98154.27;125904;1314;107989;-78
2021/11/27 12:09:15;;;;;;;25.90;14.70;;;;;;;5.05;75.67;98160.21;126065;1313;108833;-83
2021/11/27 12:12:21;;;;;;;28.40;15.20;;;;;;;5.09;75.72;98168.89;126062;1314;107688;-78
2021/11/27 12:15:30;;;;;;;32.30;16.50;;;;;;;5.14;75.73;98171.91;126120;1313;108949;-77
2021/11/27 12:18:35;;;;;;;32.60;17.00;;;;;;;5.21;75.73;98168.69;126350;1313;108861;-77
2021/11/27 12:21:41;;;;;;;25.60;14.00;;;;;;;5.24;75.50;98172.71;126325;1315;107816;-78
2021/11/27 12:25:05;;;;;;;21.90;13.90;;;;;;;5.21;75.25;98177.35;126185;1313;106877;-80
2021/11/27 12:28:15;;;;;;;27.20;14.20;;;;;;;5.11;74.93;98187.59;125998;1320;108689;-79
2021/11/27 12:31:22;;;;;;;29.10;14.10;;;;;;;4.97;74.77;98196.68;125951;1313;107879;-79
2021/11/27 12:34:40;;;;;;;22.30;13.20;;;;;;;4.83;74.92;98200.35;126028;1313;108174;-80
2021/11/27 12:37:45;;;;;;;25.10;13.70;;;;;;;4.74;75.20;98197.13;125953;1313;108884;-84
2021/11/27 12:40:51;;;;;;;306.60;131.60;;;;;;;4.68;75.09;98193.50;126035;1318;107920;-88
2021/11/27 12:44:15;;;;;;;50.60;23.30;;;;;;;4.63;75.05;98195.75;126237;1316;107833;-84
2021/11/27 12:47:46;;;;;;;46.00;21.20;;;;;;;4.60;75.30;98191.02;126199;1313;108921;-79
2021/11/27 12:51:20;;;;;;;33.40;17.40;;;;;;;4.57;75.14;98194.17;126198;1313;107641;-79
2021/11/27 12:54:29;;;;;;;26.30;14.90;;;;;;;4.56;75.10;98190.57;126050;1313;108836;-79
2021/11/27 12:57:40;;;;;;;28.30;15.50;;;;;;;4.59;75.07;98188.79;126203;1313;108951;-80
2021/11/27 13:00:46;;;;;;;27.60;15.80;;;;;;;4.61;74.93;98189.32;126184;1313;108850;-81
2021/11/27 13:03:57;;;;;;;29.20;16.00;;;;;;;4.61;75.05;98187.89;126231;1313;108961;-83
2021/11/27 13:07:03;;;;;;;28.50;16.00;;;;;;;4.59;74.75;98203.41;126059;1313;107774;-81
2021/11/27 13:10:10;;;;;;;38.40;23.50;;;;;;;4.54;74.84;98204.96;125953;1316;109024;-84
2021/11/27 13:13:19;;;;;;;30.60;17.30;;;;;;;4.50;74.58;98207.97;126203;1317;108949;-83
2021/11/27 13:16:26;;;;;;;31.00;16.60;;;;;;;4.44;74.67;98214.53;126467;1317;108223;-85
2021/11/27 13:19:34;;;;;;;25.90;15.20;;;;;;;4.40;74.81;98215.55;126209;1314;109070;-84
2021/11/27 13:22:40;;;;;;;27.20;14.90;;;;;;;4.36;74.95;98220.89;126486;1314;109041;-79
2021/11/27 13:25:47;;;;;;;25.80;14.70;;;;;;;4.31;74.97;98223.63;126307;1313;109902;-76
2021/11/27 13:28:54;;;;;;;27.10;13.80;;;;;;;4.30;74.95;98225.05;126191;1313;107792;-78
2021/11/27 13:32:02;;;;;;;26.10;15.50;;;;;;;4.34;75.00;98223.73;126289;1317;108762;-80
2021/11/27 13:35:11;;;;;;;25.80;15.70;;;;;;;4.40;74.93;98224.34;126129;1314;108792;-80
2021/11/27 13:38:28;;;;;;;31.50;16.50;;;;;;;4.44;74.82;98226.34;126167;1313;108545;-82
2021/11/27 13:41:33;;;;;;;27.30;16.10;;;;;;;4.43;74.78;98227.52;126359;1315;108972;-80
2021/11/27 13:44:45;;;;;;;29.80;15.80;;;;;;;4.36;74.45;98232.61;125888;1317;108620;-77
2021/11/27 13:47:57;;;;;;;28.50;15.10;;;;;;;4.25;74.66;98231.64;125949;1314;108657;-86
2021/11/27 13:51:03;;;;;;;26.10;14.80;;;;;;;4.21;74.29;98242.84;126261;1316;108478;-86
2021/11/27 13:54:08;;;;;;;28.20;14.80;;;;;;;4.10;74.30;98243.63;126149;1313;107791;-86
2021/11/27 13:57:17;;;;;;;27.20;15.50;;;;;;;4.04;74.42;98242.55;126256;1313;108646;-81
2021/11/27 14:00:25;;;;;;;27.90;14.50;;;;;;;3.98;74.42;98249.36;126451;1313;108754;-85
2021/11/27 14:03:34;;;;;;;28.90;15.20;;;;;;;3.91;74.53;98247.32;126137;1314;108996;-88
2021/11/27 14:06:40;;;;;;;27.80;14.30;;;;;;;3.90;74.57;98249.27;126371;1317;107786;-80
2021/11/27 14:09:53;;;;;;;28.30;15.60;;;;;;;3.88;74.41;98253.67;126225;1314;108816;-82
2021/11/27 14:13:05;;;;;;;30.10;15.90;;;;;;;3.87;74.40;98249.16;126522;1315;108750;-82
2021/11/27 14:16:21;;;;;;;32.10;17.50;;;;;;;3.84;74.30;98246.52;126477;1314;108738;-82